Terminal Aerodrome Forecast
Issued by NWS

Home | Current Version | Previous Version | Graphics & Text | Print | Product List | Glossary On
Versions: 1 2 3 4 5 6 7 8 9 10 11 12
325
FTUS43 KFGF 221732
TAFBJI
TAF
KBJI 221732Z 2218/2318 29010G20KT P6SM SCT250
     FM222100 29016KT P6SM VCSH SCT080
     FM230000 29009KT P6SM SCT080
     FM230400 32009KT P6SM SCT140
     FM231000 32006KT P6SM BKN012=

USA.gov is the U.S. government's official web portal to all federal, state and local government web resources and services.